Northglenn, CO (80233)

1:03 AM MDT on August 30, 2014 (GMT -0600)
WOODGLEN | Change Station
CLOSE
Current Station
Personal Weather Station
Location: Thornton, CO
Elevation: 5276 ft
Nearby Weather Stations

Elev 5276 ft 39.90 °N, 104.95 °W | Updated 11 minutes ago

Partly Cloudy
Partly Cloudy
57.5 °F
Feels Like 57.5 °F
N
0.0
Wind Variable Wind from SE
Gusts 0.0 mph

Today
High -- | Low -- °F
--% Chance of Precip.
Yesterday
High -- | Low -- °F
Precip. -- in
6:25 AM 7:34 PM
Waxing Crescent, 19% visible
Pressure 30.15 in
Visibility 10.0 miles
Clouds Clear
Dew Point 50 °F
Humidity 75%
Rainfall 0.01 in
Snow Depth Not available.
UV 0 out of 12
Pollen 10.40 out of 12
Ozone Good
PM2.5 Good
Flu Activity Not available.
METAR KBJC 300654Z AUTO 22003KT 10SM CLR 14/06 A3015 RMK AO2

More Conditions Fewer Conditions

Pressure 30.15 in
Visibility 10.0 miles
Clouds Clear
Dew Point 50 °F
Humidity 75%
Rainfall 0.01 in
Snow Depth Not available.
UV 0 out of 12
Pollen 10.40 out of 12
Ozone Good
PM2.5 Good
Flu Activity Not available.
METAR KBJC 300654Z AUTO 22003KT 10SM CLR 14/06 A3015 RMK AO2

More Conditions Fewer Conditions

10-Day Weather Forecast

Almanac

Astronomy

Aug. 30, 2014 Rise Set
Actual Time 6:25 AM MDT 7:34 PM MDT
Civil Twilight 5:57 AM MDT 8:01 PM MDT
Nautical Twilight 5:24 AM MDT 8:35 PM MDT
Astronomical Twilight 4:49 AM MDT 9:09 PM MDT
Moon 11:15 AM MDT 10:10 PM MDT
Length of Visible Light 14h 04m
Length of Day
13h 08m
Tomorrow will be 2m 29s shorter.
Waxing Crescent, 19% of the Moon is Illuminated
Today
Waxing Crescent
Sep 2
First Quarter
Sep 8
Full
Sep 15
Last Quarter
Sep 24
New

Today's Extremes

State Highs State Lows

Community

WunderPhotos

Upload Photos

1,748,462 photos uploaded!

Nearby

Air Quality

  Air Quality AQ Index Pollutant
Yesterday Good
OZONE
Yesterday Good
PM10
Current Good
PM2.5
Current Good
OZONE
Friday Good
OZONE
Friday Good
PM2.5
Saturday Good
OZONE
Saturday Good
PM2.5

Snow Depth

Station Depth Elevation
Niwot 1 in 9910 ft
University Camp 0 in 10300 ft
Echo Lake 0 in 10600 ft
Copeland Lake 0 in 8600 ft
Wild Basin 1 in 9560 ft

Earthquake Activity

City Distance Mag. Time & Date
No recent earthquake activity has been reported nearby.
Minimum magnitude displayed is 2.5.

Coastal Water Temperatures

Place Temperature
No Stations Reporting

Nearby Weather Stations